createdAt,value
2022-08-25T00:03:58.460Z,2.95
2022-08-25T00:06:46.867Z,2.40
2022-08-25T00:09:35.752Z,1.83
2022-08-25T00:12:23.076Z,3.38
2022-08-25T00:15:11.232Z,1.83
2022-08-25T00:17:58.938Z,2.30
2022-08-25T00:20:48.774Z,2.35
2022-08-25T00:23:36.329Z,3.25
2022-08-25T00:26:23.830Z,2.30
2022-08-25T00:29:11.704Z,1.95
2022-08-25T00:31:59.531Z,1.83
2022-08-25T00:34:47.078Z,2.25
2022-08-25T00:37:34.128Z,2.50
2022-08-25T00:40:22.367Z,2.00
2022-08-25T00:43:09.844Z,2.40
2022-08-25T00:45:56.958Z,2.03
2022-08-25T00:48:47.608Z,2.60
2022-08-25T00:51:43.126Z,2.08
2022-08-25T00:54:40.937Z,1.90
2022-08-25T00:57:35.233Z,1.75
2022-08-25T01:00:24.847Z,2.20
2022-08-25T01:03:12.383Z,2.72
2022-08-25T01:06:02.036Z,2.38
2022-08-25T01:08:32.391Z,2.75
2022-08-25T01:11:03.561Z,2.45
2022-08-25T01:13:45.302Z,1.97
2022-08-25T01:16:15.138Z,2.35
2022-08-25T01:18:52.296Z,3.22
2022-08-25T01:21:22.189Z,2.75
2022-08-25T01:23:53.109Z,2.35
2022-08-25T01:26:30.353Z,2.75
2022-08-25T01:29:18.292Z,2.47
2022-08-25T01:31:45.322Z,4.10
2022-08-25T01:34:13.434Z,2.70
2022-08-25T01:36:42.549Z,2.10
2022-08-25T01:39:09.732Z,2.38
2022-08-25T01:41:46.335Z,2.95
2022-08-25T01:44:16.657Z,2.40
2022-08-25T01:46:43.996Z,2.78
2022-08-25T01:49:11.025Z,2.45
2022-08-25T01:51:48.883Z,2.88
2022-08-25T01:54:15.711Z,3.33
2022-08-25T01:56:42.571Z,2.50
2022-08-25T02:03:01.921Z,2.28
2022-08-25T02:05:30.197Z,6.70
2022-08-25T02:07:59.597Z,2.80
2022-08-25T02:10:27.573Z,2.08
2022-08-25T02:12:54.682Z,2.92
2022-08-25T02:15:21.579Z,2.65
2022-08-25T02:17:48.355Z,2.88
2022-08-25T02:24:16.563Z,3.70
2022-08-25T02:27:04.216Z,2.45
2022-08-25T02:29:51.314Z,2.92
2022-08-25T02:32:39.525Z,2.65
2022-08-25T02:35:26.706Z,3.33
2022-08-25T02:38:14.338Z,1.95
2022-08-25T02:41:07.974Z,4.03
2022-08-25T02:43:55.401Z,3.58
2022-08-25T02:46:42.539Z,2.08
2022-08-25T02:49:30.610Z,2.20
2022-08-25T02:52:17.776Z,2.30
2022-08-25T02:55:08.984Z,2.03
2022-08-25T02:57:56.019Z,2.83
2022-08-25T06:08:33.799Z,2.38
2022-08-25T06:11:07.447Z,3.20
2022-08-25T06:13:34.478Z,2.30
2022-08-25T06:16:01.321Z,3.00
2022-08-25T06:18:28.159Z,4.55
2022-08-25T06:20:54.928Z,2.78
2022-08-25T06:23:21.716Z,2.92
2022-08-25T06:25:50.714Z,2.33
2022-08-25T06:28:18.360Z,2.95
2022-08-25T06:30:45.799Z,2.10
2022-08-25T06:33:13.065Z,3.00
2022-08-25T06:35:44.458Z,3.35
2022-08-25T06:39:12.842Z,2.33
2022-08-25T06:41:39.682Z,2.83
2022-08-25T06:44:06.813Z,2.38
2022-08-25T06:46:36.196Z,2.85
2022-08-25T06:49:08.251Z,2.38
2022-08-25T06:51:52.261Z,2.50
2022-08-25T06:55:01.639Z,3.67
2022-08-25T06:58:25.819Z,3.05
2022-08-25T07:08:33.576Z,2.42
2022-08-25T07:11:15.918Z,2.60
2022-08-25T07:13:44.786Z,2.58
2022-08-25T07:17:10.563Z,2.03
2022-08-25T07:19:41.039Z,2.08
2022-08-25T07:26:33.567Z,2.05
2022-08-25T07:33:06.755Z,2.17
2022-08-25T07:35:37.954Z,2.30
2022-08-25T07:38:07.093Z,2.40
2022-08-25T07:43:10.643Z,2.72
2022-08-25T07:45:49.084Z,2.38
2022-08-25T07:48:16.399Z,2.72
2022-08-25T07:50:45.850Z,2.05
2022-08-25T07:53:15.109Z,2.10
2022-08-25T07:55:42.017Z,2.53
2022-08-25T08:02:39.191Z,2.67
2022-08-25T08:08:59.021Z,2.83
2022-08-25T08:11:27.391Z,2.75
2022-08-25T08:13:56.612Z,2.45
2022-08-25T08:16:26.238Z,2.25
2022-08-25T08:23:04.243Z,3.97
2022-08-25T08:25:31.243Z,2.17
2022-08-25T08:27:58.069Z,3.97
2022-08-25T08:30:26.316Z,1.83
2022-08-25T08:33:11.933Z,2.25
2022-08-25T08:36:06.115Z,1.55
2022-08-25T08:38:43.263Z,1.92
2022-08-25T08:42:09.460Z,2.22
2022-08-25T08:44:37.152Z,1.98
2022-08-25T08:47:52.911Z,2.05
2022-08-25T08:50:51.998Z,2.42
2022-08-25T08:53:55.020Z,1.80
2022-08-25T08:56:32.087Z,1.40
2022-08-25T08:59:06.334Z,1.80
2022-08-25T09:01:47.123Z,1.70
2022-08-25T09:04:45.443Z,2.00
2022-08-25T09:07:17.860Z,2.20
2022-08-25T09:09:48.013Z,2.10
2022-08-25T09:15:14.663Z,1.90
2022-08-25T09:25:39.652Z,1.73
2022-08-25T09:28:38.756Z,1.85
2022-08-25T09:34:56.363Z,2.00
2022-08-25T09:37:25.051Z,1.52
2022-08-25T09:39:51.911Z,1.55
2022-08-25T09:42:23.754Z,1.77
2022-08-25T09:44:50.803Z,2.05
2022-08-25T09:47:28.093Z,1.80
2022-08-25T09:53:35.208Z,1.70
2022-08-25T09:56:27.373Z,1.58
2022-08-25T09:59:36.105Z,1.70
2022-08-25T10:02:25.831Z,2.10
2022-08-25T10:04:53.501Z,1.75
2022-08-25T10:07:54.824Z,1.85
2022-08-25T10:10:53.302Z,1.55
2022-08-25T10:13:47.519Z,1.38
2022-08-25T10:16:34.830Z,1.58
2022-08-25T10:19:27.033Z,1.40
2022-08-25T10:26:37.403Z,1.45
2022-08-25T10:29:42.834Z,1.52
2022-08-25T10:32:54.312Z,1.48
2022-08-25T10:36:15.102Z,1.23
2022-08-25T10:39:31.731Z,1.00
2022-08-25T10:50:29.566Z,1.10
2022-08-25T10:53:14.288Z,1.48
2022-08-25T11:03:35.256Z,1.08
2022-08-25T11:06:18.029Z,1.42
2022-08-25T11:08:53.323Z,1.35
2022-08-25T11:11:47.212Z,0.77
2022-08-25T11:14:46.656Z,1.13
2022-08-25T11:17:55.981Z,0.90
2022-08-25T11:21:10.097Z,2.25
2022-08-25T11:24:09.300Z,1.52
2022-08-25T11:26:57.748Z,1.30
2022-08-25T11:37:11.112Z,1.20
2022-08-25T11:39:55.940Z,1.27
2022-08-25T11:42:28.665Z,1.33
2022-08-25T11:45:42.452Z,1.05
2022-08-25T11:48:21.756Z,1.92
2022-08-25T11:51:04.998Z,1.10
2022-08-25T11:53:35.811Z,1.20
2022-08-25T11:56:09.514Z,1.33
2022-08-25T12:02:09.068Z,1.30
2022-08-25T12:04:45.116Z,0.93
2022-08-25T12:11:10.972Z,1.20
2022-08-25T12:13:49.686Z,1.27
2022-08-25T12:16:36.235Z,1.77
2022-08-25T12:22:55.528Z,1.33
2022-08-25T12:29:46.239Z,1.40
2022-08-25T12:32:34.794Z,2.95
2022-08-25T12:36:00.317Z,1.35
2022-08-25T12:38:53.018Z,1.48
2022-08-25T12:50:50.371Z,1.13
2022-08-25T12:53:27.995Z,1.10
2022-08-25T12:56:21.020Z,1.55
2022-08-25T12:59:02.500Z,0.80
2022-08-25T13:02:17.662Z,0.47
2022-08-25T13:05:17.045Z,1.60
2022-08-25T13:08:26.868Z,1.20
2022-08-25T13:15:44.376Z,1.10
2022-08-25T13:18:34.030Z,1.10
2022-08-25T13:21:40.956Z,0.80
2022-08-25T13:24:50.619Z,0.60
2022-08-25T13:32:01.454Z,0.90
2022-08-25T13:37:38.661Z,0.82
2022-08-25T13:44:19.524Z,1.05
2022-08-25T13:46:47.557Z,0.80
2022-08-25T13:53:17.031Z,0.60
2022-08-25T13:56:07.747Z,1.00
2022-08-25T13:59:03.586Z,0.80
2022-08-25T14:01:54.270Z,1.02
2022-08-25T14:04:50.591Z,0.85
2022-08-25T14:07:19.626Z,1.00
2022-08-25T14:10:09.030Z,1.35
2022-08-25T14:12:47.803Z,1.40
2022-08-25T14:15:21.778Z,0.85
2022-08-25T14:18:00.775Z,0.85
2022-08-25T14:20:31.202Z,0.82
2022-08-25T14:23:01.795Z,0.40
2022-08-25T14:25:49.388Z,1.15
2022-08-25T14:32:37.323Z,0.68
2022-08-25T14:35:25.124Z,0.50
2022-08-25T14:39:02.789Z,1.00
2022-08-25T14:45:31.486Z,0.80
2022-08-25T14:48:28.493Z,0.75
2022-08-25T14:51:16.110Z,0.70
2022-08-25T14:54:19.155Z,1.17
2022-08-25T14:57:08.281Z,0.82
2022-08-25T14:59:35.754Z,0.70
2022-08-25T15:02:15.325Z,0.80
2022-08-25T15:05:08.936Z,0.68
2022-08-25T15:08:33.384Z,1.00
2022-08-25T15:11:10.985Z,1.23
2022-08-25T15:18:26.046Z,0.90
2022-08-25T15:20:53.454Z,1.45
2022-08-25T15:24:17.660Z,0.73
2022-08-25T15:29:55.755Z,0.80
2022-08-25T15:32:25.017Z,1.20
2022-08-25T15:35:23.425Z,1.33
2022-08-25T15:38:16.196Z,0.85
2022-08-25T15:53:42.083Z,0.65
2022-08-25T15:56:29.198Z,0.90
2022-08-25T16:02:46.482Z,0.88
2022-08-25T16:13:12.080Z,1.17
2022-08-25T16:15:54.073Z,1.23
2022-08-25T16:18:22.729Z,1.15
2022-08-25T16:20:50.366Z,1.83
2022-08-25T16:27:17.797Z,1.30
2022-08-25T16:29:44.743Z,1.05
2022-08-25T16:32:13.897Z,1.25
2022-08-25T16:38:31.160Z,1.23
2022-08-25T16:48:40.511Z,1.30
2022-08-25T16:51:13.919Z,1.50
2022-08-25T16:54:00.691Z,1.60
2022-08-25T16:56:29.728Z,1.70
2022-08-25T16:59:12.920Z,2.08
2022-08-25T17:02:00.062Z,1.10
2022-08-25T17:04:32.248Z,1.20
2022-08-25T17:06:59.916Z,1.52
2022-08-25T17:09:29.656Z,1.15
2022-08-25T17:11:57.327Z,1.40
2022-08-25T17:14:24.935Z,1.30
2022-08-25T17:16:54.780Z,1.25
2022-08-25T17:19:23.675Z,2.50
2022-08-25T17:21:50.933Z,1.52
2022-08-25T17:24:18.004Z,1.17
2022-08-25T17:26:47.329Z,1.05
2022-08-25T17:29:19.025Z,1.10
2022-08-25T17:31:51.269Z,1.20
2022-08-25T17:34:22.464Z,1.10
2022-08-25T17:39:18.501Z,1.35
2022-08-25T17:41:45.830Z,1.27
2022-08-25T17:44:13.588Z,1.50
2022-08-25T17:46:47.217Z,1.20
2022-08-25T17:49:20.921Z,1.23
2022-08-25T17:51:47.712Z,1.25
2022-08-25T17:54:14.913Z,1.10
2022-08-25T17:56:41.971Z,1.23
2022-08-25T17:59:09.356Z,1.33
2022-08-25T18:01:40.522Z,1.02
2022-08-25T18:06:44.676Z,2.25
2022-08-25T18:13:02.411Z,1.27
2022-08-25T18:15:30.561Z,1.50
2022-08-25T18:17:57.636Z,1.05
2022-08-25T18:20:24.810Z,1.60
2022-08-25T18:22:51.724Z,1.42
2022-08-25T18:25:18.504Z,2.22
2022-08-25T18:27:45.250Z,3.00
2022-08-25T18:30:12.368Z,1.77
2022-08-25T18:32:40.526Z,2.30
2022-08-25T18:35:27.790Z,1.95
2022-08-25T18:42:06.530Z,1.65
2022-08-25T18:44:54.383Z,2.28
2022-08-25T18:47:41.610Z,2.72
2022-08-25T18:50:32.737Z,3.58
2022-08-25T18:53:30.713Z,2.47
2022-08-25T18:56:53.963Z,1.98
2022-08-25T18:59:24.189Z,1.50
2022-08-25T19:01:53.085Z,1.40
2022-08-25T19:04:20.492Z,2.70
2022-08-25T19:07:14.750Z,2.40
2022-08-25T19:09:41.535Z,1.75
2022-08-25T19:12:11.722Z,3.40
2022-08-25T19:14:49.357Z,2.17
2022-08-25T19:17:37.322Z,4.30
2022-08-25T19:24:15.886Z,1.83
2022-08-25T19:26:43.155Z,1.70
2022-08-25T19:30:30.450Z,1.65
2022-08-25T19:37:25.251Z,1.85
2022-08-25T19:39:55.552Z,1.38
2022-08-25T19:54:29.966Z,2.47
2022-08-25T19:57:28.632Z,1.98
2022-08-25T20:03:58.506Z,1.48
2022-08-25T20:14:16.814Z,1.30
2022-08-25T20:25:48.251Z,1.85
2022-08-25T20:28:37.350Z,2.03
2022-08-25T20:35:55.122Z,1.17
2022-08-25T20:39:20.544Z,1.70
2022-08-25T20:41:51.101Z,1.80
2022-08-25T20:47:58.464Z,1.35
2022-08-25T20:55:54.950Z,1.40
2022-08-25T20:58:54.671Z,1.67
2022-08-25T21:01:43.736Z,1.65
2022-08-25T21:04:14.529Z,1.92
2022-08-25T21:10:23.462Z,1.55
2022-08-25T21:12:53.540Z,2.28
2022-08-25T21:15:20.562Z,1.77
2022-08-25T21:21:49.799Z,3.65
2022-08-25T21:24:18.364Z,1.60
2022-08-25T21:26:49.759Z,1.55
2022-08-25T21:29:36.952Z,1.58
2022-08-25T21:32:24.598Z,1.17
2022-08-25T21:35:11.839Z,1.50
2022-08-25T21:38:29.467Z,1.80
2022-08-25T21:40:58.818Z,2.15
2022-08-25T21:43:26.194Z,2.25
2022-08-25T21:50:05.101Z,1.58
2022-08-25T21:52:43.515Z,1.70
2022-08-25T21:55:46.243Z,1.52
2022-08-25T21:58:13.816Z,1.80
2022-08-25T22:00:41.154Z,1.35
2022-08-25T22:03:08.223Z,1.45
2022-08-25T22:05:37.360Z,2.08
2022-08-25T22:08:04.293Z,1.75
2022-08-25T22:10:31.056Z,1.88
2022-08-25T22:12:57.804Z,1.95
2022-08-25T22:15:24.784Z,1.45
2022-08-25T22:17:51.726Z,1.30
2022-08-25T22:20:25.298Z,1.65
2022-08-25T22:23:20.161Z,2.15
2022-08-25T22:25:50.392Z,2.30
2022-08-25T22:32:06.672Z,1.33
2022-08-25T22:34:34.716Z,1.70
2022-08-25T22:37:07.061Z,1.95
2022-08-25T22:39:46.926Z,1.30
2022-08-25T22:42:14.219Z,1.77
2022-08-25T22:45:01.941Z,2.10
2022-08-25T22:47:29.782Z,1.63
2022-08-25T22:53:48.718Z,1.70
2022-08-25T22:56:29.825Z,1.38
2022-08-25T22:58:59.398Z,1.17
2022-08-25T23:01:26.897Z,1.40
2022-08-25T23:07:44.384Z,1.42
2022-08-25T23:15:12.203Z,1.35
2022-08-25T23:17:39.082Z,1.60
2022-08-25T23:27:47.598Z,1.38
2022-08-25T23:30:17.114Z,1.30
2022-08-25T23:32:43.916Z,1.10
2022-08-25T23:35:12.266Z,1.52
2022-08-25T23:37:41.875Z,1.17
2022-08-25T23:40:11.221Z,1.20
2022-08-25T23:42:58.761Z,1.38
2022-08-25T23:45:46.397Z,1.42
2022-08-25T23:48:34.793Z,1.77
2022-08-25T23:51:28.234Z,1.65
2022-08-25T23:54:15.852Z,1.65
2022-08-25T23:57:03.642Z,1.33
2022-08-25T23:59:53.894Z,1.73
